Woodlands, New Zealand
Current Conditions -  °F | °C
As of 9:30 PM on Friday 28 Nov 2014 (Local Time) from NZCH Reporting Station
Rain Showers Rain Showers  
Wind Chill: 48°   Ceiling: 900
Heat Index: 48°   Visibility: 6mi
Dew Point: 46°   Wind: 3mph
Humidity: 93%   Direction: 50°NE
Pressure: 29.71"   Gusts: NA
Location:  46.37°S, 168.55°E
Report Text: NZCH 280930Z AUTO 05003KT 9999 -SHRA BKN009/// BKN023///BKN060/// 09/08 Q1006 BECMG SCT008 BKN025
Loading
Personal Weather Stations






























Interactive Weather Map New forecast layout! Learn more

10-Day Weather Forecast

Advertisements
Track Severe Weather on mobile